Latest Weather Observations for Cape Flattery

IDQ60801

Issued at 12:02 pm EST Monday 30 March 2015 (issued every 30 minutes, with the page automatically refreshed every 10 minutes)

About weather observations | Map of weather stations | Latest weather observations for QLD | Other Formats
Station Details ID: 031213 Name: CAPE FLATTERY Lat: -14.97 Lon: 145.31 Height: 18.5 m
Data from the previous 72 hours. | See also: Recent months at Cape Flattery
Date/Time
EST
Temp
°C
App
Temp
°C
Dew
Point
Rel
Hum
%
Delta-T
°C
Wind Press
QNH
hPa
Press
MSL
hPa
Rain
since 9 am
mm
Dir
 
Spd
km/h
Gust
km/h
Spd
kts
Gust
kts
30/12:00pm 29.2 27.8 22.9 69 4.3 SE 35 50 19 27 1015.0 1014.9 0.2
30/11:30am 29.7 28.3 22.9 67 4.6 SE 35 46 19 25 1015.4 1015.3 0.2
30/11:00am 29.6 28.3 23.1 68 4.5 SE 35 44 19 24 1015.7 1015.6 0.2
30/10:30am 29.3 28.9 23.7 72 3.9 SSE 32 39 17 21 1015.9 1015.8 0.2
30/10:00am 28.6 28.2 23.7 75 3.4 SSE 32 44 17 24 1015.9 1015.8 0.2
30/09:30am 28.2 26.8 22.9 73 3.6 SE 35 48 19 26 1015.8 1015.7 0.0
30/09:00am 27.8 27.2 23.4 77 3.0 SE 32 43 17 23 1015.8 1015.7 16.0
30/08:30am 27.1 27.0 23.6 81 2.4 SE 30 41 16 22 1015.5 1015.4 16.0
30/08:00am 26.2 27.2 23.5 85 1.8 SE 24 39 13 21 1015.1 1015.0 16.0
30/07:30am 24.7 24.2 22.8 89 1.3 SSE 30 44 16 24 1014.9 1014.8 16.0
30/07:04am 25.4 25.2 22.7 85 1.8 SE 28 57 15 31 1014.8 1014.7 15.8
30/07:00am 25.5 25.9 23.2 87 1.6 SE 26 39 14 21 1014.7 1014.6 15.8
30/06:30am 25.4 24.8 23.3 88 1.4 ESE 32 44 17 24 1014.3 1014.2 15.4
30/06:00am 24.9 24.1 23.1 90 1.2 SE 32 46 17 25 1014.0 1013.9 15.4
30/05:34am 25.9 25.6 23.2 85 1.8 SE 30 50 16 27 1013.7 1013.6 13.8
30/05:30am 26.2 26.3 23.3 84 2.0 SE 28 41 15 22 1013.5 1013.4 13.6
30/05:00am 26.3 26.7 23.8 86 1.7 SE 28 43 15 23 1013.3 1013.2 13.6
30/04:30am 26.1 26.5 23.8 87 1.6 SE 28 37 15 20 1013.1 1013.0 13.6
30/04:00am 24.2 26.9 22.8 92 0.9 E 13 24 7 13 1013.1 1013.0 13.6
30/03:30am 23.5 23.3 22.1 92 0.9 ESE 26 43 14 23 1013.3 1013.2 13.6
30/03:05am 23.2 20.6 20.7 86 1.6 ESE 35 54 19 29 1013.5 1013.4 8.8
30/03:00am 25.4 23.6 22.9 86 1.7 SE 37 54 20 29 1013.2 1013.1 6.8
30/02:30am 24.6 24.8 22.7 89 1.3 ESE 26 46 14 25 1013.2 1013.1 6.6
30/02:00am 26.6 27.8 23.9 85 1.9 SE 24 33 13 18 1013.4 1013.3 0.4
30/01:30am 26.3 26.8 24.0 87 1.6 SE 28 33 15 18 1013.9 1013.8 0.4
30/01:00am 26.5 27.3 23.8 85 1.9 SE 26 37 14 20 1014.2 1014.1 0.4
30/12:30am 26.4 27.6 23.9 86 1.7 SE 24 32 13 17 1014.7 1014.6 0.4
30/12:00am 26.3 26.1 23.4 84 2.0 SE 30 37 16 20 1014.8 1014.7 0.4
 
Date/Time
EST
Temp
°C
App
Temp
°C
Dew
Point
Rel
Hum
%
Delta-T
°C
Wind Press
QNH
hPa
Press
MSL
hPa
Rain
since 9 am
mm
Dir
 
Spd
km/h
Gust
km/h
Spd
kts
Gust
kts
29/11:30pm 26.0 27.0 23.5 86 1.7 SE 24 32 13 17 1015.2 1015.1 0.4
29/11:00pm 26.8 27.9 23.7 83 2.1 SE 24 35 13 19 1015.3 1015.2 0.2
29/10:30pm 26.7 28.0 23.4 82 2.3 SE 22 32 12 17 1015.3 1015.2 0.2
29/10:00pm 27.0 27.6 23.5 81 2.4 SE 26 33 14 18 1015.4 1015.3 0.2
29/09:30pm 27.2 27.5 23.0 78 2.9 SE 26 35 14 19 1015.3 1015.2 0.2
29/09:00pm 27.2 27.9 23.0 78 2.9 SE 24 32 13 17 1015.2 1015.1 0.2
29/08:30pm 27.1 27.8 23.6 81 2.4 SE 26 37 14 20 1015.0 1014.9 0.2
29/08:00pm 27.2 27.4 23.4 80 2.6 SE 28 43 15 23 1014.8 1014.7 0.2
29/07:30pm 27.0 27.4 23.7 82 2.3 SE 28 39 15 21 1014.7 1014.6 0.2
29/07:00pm 26.6 26.6 23.7 84 2.0 SE 30 43 16 23 1014.6 1014.5 0.2
29/06:30pm 27.0 26.9 23.5 81 2.4 SE 30 43 16 23 1014.1 1014.0 0.2
29/06:00pm 26.7 26.0 23.6 83 2.1 SE 33 46 18 25 1013.7 1013.6 0.2
29/05:30pm 28.1 26.8 23.2 74 3.4 SE 35 48 19 26 1013.4 1013.3 0.2
29/05:00pm 28.4 27.1 23.1 73 3.6 SE 35 46 19 25 1013.1 1013.0 0.2
29/04:42pm 28.9 27.7 23.3 72 3.8 SE 35 54 19 29 1012.9 1012.8 0.2
29/04:30pm 28.0 26.7 23.1 74 3.3 SE 35 48 19 26 1012.9 1012.8 0.2
29/04:00pm 28.0 27.0 23.6 77 3.0 SSE 35 46 19 25 1012.8 1012.7 0.2
29/03:30pm 28.6 27.3 23.1 72 3.8 SSE 35 44 19 24 1012.8 1012.7 0.2
29/03:00pm 28.7 26.9 22.9 71 4.0 SSE 37 48 20 26 1012.9 1012.8 0.2
29/02:30pm 29.4 28.7 23.6 71 4.0 SE 33 43 18 23 1012.8 1012.7 0.2
29/02:00pm 29.7 28.7 23.6 69 4.2 SE 35 46 19 25 1013.0 1012.9 0.2
29/01:30pm 29.1 28.5 23.3 71 4.0 SE 32 43 17 23 1013.5 1013.4 0.2
29/01:00pm 29.4 29.1 23.8 72 3.9 SE 32 43 17 23 1014.1 1014.0 0.2
29/12:30pm 28.5 27.8 23.2 73 3.6 SE 32 41 17 22 1014.5 1014.4 0.2
29/12:00pm 28.8 28.1 23.2 71 3.8 SE 32 41 17 22 1014.8 1014.7 0.2
29/11:30am 30.0 30.8 24.4 72 3.9 SE 28 39 15 21 1015.2 1015.1 0.2
29/11:00am 28.8 28.9 24.6 78 2.9 SE 32 43 17 23 1015.5 1015.4 0.2
29/10:30am 29.2 30.1 23.9 73 3.7 ESE 26 35 14 19 1015.6 1015.5 0.2
29/10:00am 28.7 28.5 23.4 73 3.6 SE 30 41 16 22 1015.6 1015.5 0.2
29/09:30am 27.5 28.3 23.1 77 3.0 SE 24 32 13 17 1015.6 1015.5 0.0
29/09:00am 27.1 27.5 23.8 82 2.3 SE 28 35 15 19 1015.3 1015.2 2.0
29/08:30am 27.7 28.1 23.1 76 3.1 ESE 26 35 14 19 1015.0 1014.9 2.0
29/08:00am 27.2 28.0 23.2 79 2.7 SE 24 32 13 17 1014.7 1014.6 2.0
29/07:30am 26.7 27.8 23.0 80 2.5 SE 22 32 12 17 1014.4 1014.3 2.0
29/07:00am 25.8 27.6 23.5 87 1.6 SE 20 28 11 15 1014.2 1014.1 2.0
29/06:30am 24.9 25.9 22.8 88 1.4 SE 22 28 12 15 1013.9 1013.8 2.0
29/06:00am 25.0 26.1 23.1 89 1.3 SE 22 28 12 15 1013.5 1013.4 2.0
29/05:30am 25.0 26.0 22.9 88 1.4 SE 22 30 12 16 1013.3 1013.2 2.0
29/05:00am 24.8 25.8 22.9 89 1.3 SSE 22 32 12 17 1013.0 1012.9 2.0
29/04:30am 25.5 26.1 22.8 85 1.8 SSE 24 30 13 16 1012.8 1012.7 0.0
29/04:00am 26.0 25.8 22.7 82 2.2 SSE 28 37 15 20 1012.7 1012.6 0.0
29/03:30am 26.2 27.3 23.1 83 2.1 SE 22 28 12 15 1012.6 1012.5 0.0
29/03:00am 26.1 27.2 23.0 83 2.1 SE 22 32 12 17 1012.9 1012.8 0.0
29/02:30am 24.9 28.0 22.2 85 1.8 SE 9 15 5 8 1013.2 1013.1 0.0
29/02:00am 24.8 25.5 21.5 82 2.2 SSE 20 32 11 17 1013.4 1013.3 0.0
29/01:30am 25.3 27.3 23.0 87 1.6 SE 17 22 9 12 1013.7 1013.6 0.0
29/01:00am 25.3 27.1 23.2 88 1.4 SSE 19 24 10 13 1014.0 1013.9 0.0
29/12:30am 23.6 25.8 21.1 86 1.6 SSE 11 17 6 9 1014.4 1014.3 0.0
29/12:00am 25.4 26.5 22.3 83 2.1 SE 20 30 11 16 1014.7 1014.6 0.0
 
Date/Time
EST
Temp
°C
App
Temp
°C
Dew
Point
Rel
Hum
%
Delta-T
°C
Wind Press
QNH
hPa
Press
MSL
hPa
Rain
since 9 am
mm
Dir
 
Spd
km/h
Gust
km/h
Spd
kts
Gust
kts
28/11:30pm 26.4 27.2 22.5 79 2.6 SE 22 28 12 15 1014.9 1014.8 0.0
28/11:00pm 26.4 26.5 22.5 79 2.6 SE 26 33 14 18 1014.9 1014.8 0.0
28/10:30pm 26.6 26.2 22.4 78 2.8 SE 28 35 15 19 1014.9 1014.8 0.0
28/10:00pm 26.8 26.2 22.0 75 3.2 SE 28 35 15 19 1015.1 1015.0 0.0
28/09:30pm 26.4 27.7 22.3 78 2.8 SSE 19 28 10 15 1014.9 1014.8 0.0
28/09:00pm 25.7 27.3 22.2 81 2.3 SE 17 20 9 11 1015.0 1014.9 0.0
28/08:30pm 26.0 24.2 21.2 75 3.2 SE 32 43 17 23 1014.9 1014.8 0.0
28/08:00pm 26.1 25.0 21.7 77 2.9 SE 30 48 16 26 1014.6 1014.5 0.0
28/07:58pm 26.5 25.7 21.7 75 3.2 SE 28 48 15 26 1014.6 1014.5 0.0
28/07:30pm 27.0 27.3 21.5 72 3.7 SE 22 32 12 17 1014.0 1013.9 0.0
28/07:00pm 27.0 26.9 20.8 69 4.1 SE 22 33 12 18 1013.6 1013.5 0.0
28/06:30pm 27.2 27.1 21.5 71 3.8 SE 24 35 13 19 1013.6 1013.5 0.0
28/06:00pm 27.6 26.1 20.2 64 4.8 SE 28 35 15 19 1013.2 1013.1 0.0
28/05:30pm 28.1 26.0 20.6 63 5.0 SE 32 41 17 22 1013.0 1012.9 0.0
28/05:00pm 28.7 27.4 20.7 62 5.3 SE 28 35 15 19 1012.8 1012.7 0.0
28/04:30pm 29.0 27.2 20.4 59 5.7 SE 30 41 16 22 1012.7 1012.6 0.0
28/04:00pm 29.7 27.7 20.0 56 6.4 SE 30 39 16 21 1012.7 1012.6 0.0
28/03:30pm 29.7 28.1 20.8 58 5.9 SE 30 41 16 22 1012.7 1012.6 0.0
28/03:00pm 30.0 27.4 19.4 53 6.9 SE 32 41 17 22 1012.8 1012.7 0.0
28/02:30pm 30.3 28.4 20.2 54 6.7 SE 30 43 16 23 1012.9 1012.8 0.0
28/02:00pm 30.6 28.7 21.4 58 6.2 SE 33 43 18 23 1013.0 1012.9 0.0
28/01:30pm 31.5 31.2 21.9 56 6.5 SE 26 37 14 20 1013.4 1013.3 0.0
28/01:00pm 30.5 29.2 20.7 55 6.5 SE 28 37 15 20 1013.8 1013.7 0.0
28/12:30pm 30.9 30.1 21.7 58 6.2 SE 28 35 15 19 1014.2 1014.1 0.0
28/12:00pm 30.5 29.2 20.7 55 6.5 SE 28 37 15 20 1014.7 1014.6 0.0
28/11:30am 31.0 30.1 21.5 57 6.4 SE 28 35 15 19 1015.1 1015.0 0.0
28/11:00am 29.7 28.0 20.5 57 6.1 SE 30 39 16 21 1015.5 1015.4 0.0
28/10:30am 30.3 28.9 21.1 58 6.2 SE 30 43 16 23 1015.7 1015.6 0.0
28/10:00am 29.4 27.8 20.8 60 5.7 SE 30 41 16 22 1015.6 1015.5 0.0
28/09:30am 29.4 28.5 21.4 62 5.4 SE 28 37 15 20 1015.6 1015.5 0.0
28/09:00am 29.6 29.3 22.6 66 4.8 ESE 28 37 15 20 1015.6 1015.5 0.0
28/08:30am 28.9 28.5 21.7 65 4.8 SE 26 39 14 21 1015.3 1015.2 0.0
28/08:00am 27.8 27.8 21.6 69 4.1 SE 24 33 13 18 1015.0 1014.9 0.0
28/07:30am 27.4 27.6 21.4 70 4.0 ESE 22 32 12 17 1014.5 1014.4 0.0
28/07:00am 26.9 26.3 21.2 71 3.8 SE 26 35 14 19 1014.4 1014.3 0.0
28/06:30am 26.5 26.4 21.5 74 3.3 SE 24 32 13 17 1014.2 1014.1 0.0
28/06:00am 26.6 26.6 21.6 74 3.3 SE 24 33 13 18 1013.9 1013.8 0.0
28/05:30am 26.5 26.9 21.7 75 3.2 ESE 22 32 12 17 1013.6 1013.5 0.0
28/05:00am 26.6 26.9 21.6 74 3.3 SE 22 30 12 16 1013.3 1013.2 0.0
28/04:30am 26.4 27.5 22.0 77 2.9 SE 19 26 10 14 1013.2 1013.1 0.0
28/04:00am 26.3 27.3 21.7 76 3.1 ESE 19 26 10 14 1013.1 1013.0 0.0
28/03:30am 26.6 27.1 22.0 76 3.1 SE 22 30 12 16 1013.0 1012.9 0.0
28/03:00am 26.4 27.2 21.8 76 3.1 SE 20 28 11 15 1013.2 1013.1 0.0
28/02:30am 26.5 27.4 21.9 76 3.1 SE 20 28 11 15 1013.2 1013.1 0.0
28/02:00am 26.4 27.2 21.8 76 3.1 ESE 20 28 11 15 1013.4 1013.3 0.0
28/01:30am 26.5 27.3 21.7 75 3.2 SE 20 26 11 14 1013.7 1013.6 0.0
28/01:00am 26.6 27.9 22.4 78 2.8 SE 19 26 10 14 1014.0 1013.9 0.0
28/12:30am 26.7 27.7 22.1 76 3.1 SE 20 32 11 17 1014.3 1014.2 0.0
28/12:00am 26.9 27.5 22.1 75 3.2 SE 22 30 12 16 1014.5 1014.4 0.0
 
Date/Time
EST
Temp
°C
App
Temp
°C
Dew
Point
Rel
Hum
%
Delta-T
°C
Wind Press
QNH
hPa
Press
MSL
hPa
Rain
since 9 am
mm
Dir
 
Spd
km/h
Gust
km/h
Spd
kts
Gust
kts
27/11:30pm 26.8 27.3 22.0 75 3.2 SE 22 30 12 16 1014.6 1014.5 0.0
27/11:00pm 26.9 28.1 22.5 77 3.0 SE 20 30 11 16 1014.9 1014.8 0.0
27/10:30pm 27.0 27.5 22.6 77 3.0 SE 24 32 13 17 1015.2 1015.1 0.0
27/10:00pm 26.9 27.5 22.1 75 3.2 SE 22 30 12 16 1015.3 1015.2 0.0
27/09:30pm 27.0 27.3 22.2 75 3.2 SE 24 33 13 18 1015.4 1015.3 0.0
27/09:00pm 27.1 27.6 22.7 77 3.0 SE 24 33 13 18 1015.0 1014.9 0.0
27/08:30pm 27.2 27.5 22.2 74 3.4 SE 24 35 13 19 1014.6 1014.5 0.0
27/08:00pm 27.2 27.9 22.2 74 3.4 SE 22 32 12 17 1014.4 1014.3 0.0
27/07:30pm 27.2 28.5 22.6 76 3.1 SE 20 30 11 16 1013.9 1013.8 0.0
27/07:00pm 27.3 28.4 22.3 74 3.4 SE 20 30 11 16 1013.6 1013.5 0.0
27/06:30pm 27.4 27.7 22.3 73 3.4 SSE 24 32 13 17 1013.2 1013.1 0.0
27/06:00pm 27.8 28.1 22.3 72 3.7 SSE 24 30 13 16 1013.0 1012.9 0.0
27/05:30pm 28.1 28.4 22.3 70 3.9 SSE 24 30 13 16 1012.8 1012.7 0.0
27/05:00pm 28.8 29.1 22.3 68 4.4 SE 24 30 13 16 1012.8 1012.7 0.0
27/04:30pm 29.7 29.6 22.9 67 4.6 SE 28 35 15 19 1012.6 1012.5 0.0
27/04:00pm 29.4 29.0 22.4 66 4.8 SE 28 33 15 18 1012.6 1012.5 0.0
27/03:30pm 29.8 29.7 22.3 64 5.1 SE 26 33 14 18 1012.7 1012.6 0.0
27/03:00pm 29.9 29.7 22.1 63 5.3 SE 26 32 14 17 1012.9 1012.8 0.0
27/02:30pm 30.1 29.7 21.7 60 5.7 SE 26 33 14 18 1013.1 1013.0 0.0
27/02:00pm 30.2 30.2 21.6 60 5.8 SE 24 33 13 18 1013.3 1013.2 0.0
27/01:30pm 30.5 30.7 22.1 61 5.7 SE 24 35 13 19 1013.7 1013.6 0.0
27/01:00pm 30.3 30.4 22.5 63 5.3 SE 26 33 14 18 1014.2 1014.1 0.0
27/12:30pm 30.2 30.2 22.4 63 5.3 SE 26 32 14 17 1014.7 1014.6 0.0

Other Formats:

Comma delimited format used in spreadsheet applications
http://www.bom.gov.au/fwo/IDQ60801/IDQ60801.94188.axf

JavaScript Object Notation format (JSON) in row-major order
http://www.bom.gov.au/fwo/IDQ60801/IDQ60801.94188.json